sensor_id;sensor_type;location;lat;lon;timestamp;temperature;humidity
24614;DHT22;12760;46.296;25.290;2023-02-15T00:01:05;4.20;99.90
24614;DHT22;12760;46.296;25.290;2023-02-15T00:03:31;4.20;99.90
24614;DHT22;12760;46.296;25.290;2023-02-15T00:05:57;4.20;99.90
24614;DHT22;12760;46.296;25.290;2023-02-15T00:08:23;4.10;99.90
24614;DHT22;12760;46.296;25.290;2023-02-15T00:10:49;4.00;99.90
24614;DHT22;12760;46.296;25.290;2023-02-15T00:13:14;4.00;99.90
24614;DHT22;12760;46.296;25.290;2023-02-15T00:15:40;4.00;99.90
24614;DHT22;12760;46.296;25.290;2023-02-15T00:18:06;4.00;99.90
24614;DHT22;12760;46.296;25.290;2023-02-15T00:20:31;4.00;99.90
24614;DHT22;12760;46.296;25.290;2023-02-15T00:22:58;4.00;99.90
24614;DHT22;12760;46.296;25.290;2023-02-15T00:25:24;4.00;99.90
24614;DHT22;12760;46.296;25.290;2023-02-15T00:27:49;3.90;99.90
24614;DHT22;12760;46.296;25.290;2023-02-15T00:30:15;3.90;99.90
24614;DHT22;12760;46.296;25.290;2023-02-15T00:32:41;3.90;99.90
24614;DHT22;12760;46.296;25.290;2023-02-15T00:35:06;3.90;99.90
24614;DHT22;12760;46.296;25.290;2023-02-15T00:37:32;3.90;99.90
24614;DHT22;12760;46.296;25.290;2023-02-15T00:39:58;4.00;99.90
24614;DHT22;12760;46.296;25.290;2023-02-15T00:42:24;4.00;99.90
24614;DHT22;12760;46.296;25.290;2023-02-15T00:44:49;4.00;99.90
24614;DHT22;12760;46.296;25.290;2023-02-15T00:47:15;4.10;99.90
24614;DHT22;12760;46.296;25.290;2023-02-15T00:49:41;4.10;99.90
24614;DHT22;12760;46.296;25.290;2023-02-15T00:52:06;4.10;99.90
24614;DHT22;12760;46.296;25.290;2023-02-15T00:54:32;4.10;99.90
24614;DHT22;12760;46.296;25.290;2023-02-15T00:57:00;4.10;99.90
24614;DHT22;12760;46.296;25.290;2023-02-15T00:59:25;4.10;99.90
24614;DHT22;12760;46.296;25.290;2023-02-15T01:01:51;4.10;99.90
24614;DHT22;12760;46.296;25.290;2023-02-15T01:04:17;4.10;99.90
24614;DHT22;12760;46.296;25.290;2023-02-15T01:06:42;3.90;99.90
24614;DHT22;12760;46.296;25.290;2023-02-15T01:09:08;3.80;99.90
24614;DHT22;12760;46.296;25.290;2023-02-15T01:11:34;3.80;99.90
24614;DHT22;12760;46.296;25.290;2023-02-15T01:14:00;3.70;99.90
24614;DHT22;12760;46.296;25.290;2023-02-15T01:16:27;3.70;99.90
24614;DHT22;12760;46.296;25.290;2023-02-15T01:18:53;3.50;99.90
24614;DHT22;12760;46.296;25.290;2023-02-15T01:21:22;3.40;99.90
24614;DHT22;12760;46.296;25.290;2023-02-15T01:23:48;3.40;99.90
24614;DHT22;12760;46.296;25.290;2023-02-15T01:26:15;3.40;99.90
24614;DHT22;12760;46.296;25.290;2023-02-15T01:28:40;3.40;99.90
24614;DHT22;12760;46.296;25.290;2023-02-15T01:31:12;3.30;99.90
24614;DHT22;12760;46.296;25.290;2023-02-15T01:33:38;3.20;99.90
24614;DHT22;12760;46.296;25.290;2023-02-15T01:36:05;3.30;99.90
24614;DHT22;12760;46.296;25.290;2023-02-15T01:38:31;3.30;99.90
24614;DHT22;12760;46.296;25.290;2023-02-15T01:40:56;3.30;99.90
24614;DHT22;12760;46.296;25.290;2023-02-15T01:43:45;3.20;99.90
24614;DHT22;12760;46.296;25.290;2023-02-15T01:46:13;3.10;99.90
24614;DHT22;12760;46.296;25.290;2023-02-15T01:48:51;3.10;99.90
24614;DHT22;12760;46.296;25.290;2023-02-15T01:51:20;3.10;99.90
24614;DHT22;12760;46.296;25.290;2023-02-15T01:53:51;3.20;99.90
24614;DHT22;12760;46.296;25.290;2023-02-15T01:56:25;3.20;99.90
24614;DHT22;12760;46.296;25.290;2023-02-15T01:58:54;3.20;99.90
24614;DHT22;12760;46.296;25.290;2023-02-15T02:01:24;3.20;99.90
24614;DHT22;12760;46.296;25.290;2023-02-15T02:04:12;3.00;99.90
24614;DHT22;12760;46.296;25.290;2023-02-15T02:06:39;3.00;99.90
24614;DHT22;12760;46.296;25.290;2023-02-15T02:09:05;2.90;99.90
24614;DHT22;12760;46.296;25.290;2023-02-15T02:11:31;2.90;99.90
24614;DHT22;12760;46.296;25.290;2023-02-15T02:13:57;2.90;99.90
24614;DHT22;12760;46.296;25.290;2023-02-15T02:16:41;2.90;99.90
24614;DHT22;12760;46.296;25.290;2023-02-15T02:28:03;2.90;99.90
24614;DHT22;12760;46.296;25.290;2023-02-15T02:39:48;3.00;99.90
24614;DHT22;12760;46.296;25.290;2023-02-15T02:42:35;3.00;99.90
24614;DHT22;12760;46.296;25.290;2023-02-15T02:47:53;3.00;99.90
24614;DHT22;12760;46.296;25.290;2023-02-15T02:50:26;3.00;99.90
24614;DHT22;12760;46.296;25.290;2023-02-15T02:52:54;3.10;99.90
24614;DHT22;12760;46.296;25.290;2023-02-15T02:55:30;3.20;99.90
24614;DHT22;12760;46.296;25.290;2023-02-15T03:01:20;3.30;99.90
24614;DHT22;12760;46.296;25.290;2023-02-15T03:04:00;3.30;99.90
24614;DHT22;12760;46.296;25.290;2023-02-15T03:07:04;3.20;99.90
24614;DHT22;12760;46.296;25.290;2023-02-15T03:09:38;3.30;99.90
24614;DHT22;12760;46.296;25.290;2023-02-15T03:12:27;3.40;99.90
24614;DHT22;12760;46.296;25.290;2023-02-15T03:15:19;3.40;99.90
24614;DHT22;12760;46.296;25.290;2023-02-15T03:17:48;3.40;99.90
24614;DHT22;12760;46.296;25.290;2023-02-15T03:20:20;3.40;99.90
24614;DHT22;12760;46.296;25.290;2023-02-15T03:23:10;3.40;99.90
24614;DHT22;12760;46.296;25.290;2023-02-15T03:25:40;3.50;99.90
24614;DHT22;12760;46.296;25.290;2023-02-15T03:28:09;3.50;99.90
24614;DHT22;12760;46.296;25.290;2023-02-15T03:30:37;3.50;99.90
24614;DHT22;12760;46.296;25.290;2023-02-15T03:33:05;3.50;99.90
24614;DHT22;12760;46.296;25.290;2023-02-15T03:35:39;3.50;99.90
24614;DHT22;12760;46.296;25.290;2023-02-15T03:38:07;3.60;99.90
24614;DHT22;12760;46.296;25.290;2023-02-15T03:40:42;3.60;99.90
24614;DHT22;12760;46.296;25.290;2023-02-15T03:43:42;3.50;99.90
24614;DHT22;12760;46.296;25.290;2023-02-15T03:46:41;3.50;99.90
24614;DHT22;12760;46.296;25.290;2023-02-15T03:49:20;3.50;99.90
24614;DHT22;12760;46.296;25.290;2023-02-15T03:51:48;3.50;99.90
24614;DHT22;12760;46.296;25.290;2023-02-15T03:54:22;3.50;99.90
24614;DHT22;12760;46.296;25.290;2023-02-15T03:57:13;3.50;99.90
24614;DHT22;12760;46.296;25.290;2023-02-15T03:59:58;3.50;99.90
24614;DHT22;12760;46.296;25.290;2023-02-15T04:05:14;3.40;99.90
24614;DHT22;12760;46.296;25.290;2023-02-15T04:07:39;3.40;99.90
24614;DHT22;12760;46.296;25.290;2023-02-15T04:10:06;3.40;99.90
24614;DHT22;12760;46.296;25.290;2023-02-15T04:12:50;3.30;99.90
24614;DHT22;12760;46.296;25.290;2023-02-15T04:15:16;3.30;99.90
24614;DHT22;12760;46.296;25.290;2023-02-15T04:18:02;3.30;99.90
24614;DHT22;12760;46.296;25.290;2023-02-15T04:20:28;3.30;99.90
24614;DHT22;12760;46.296;25.290;2023-02-15T04:23:12;3.30;99.90
24614;DHT22;12760;46.296;25.290;2023-02-15T04:25:57;3.20;99.90
24614;DHT22;12760;46.296;25.290;2023-02-15T04:28:22;3.20;99.90
24614;DHT22;12760;46.296;25.290;2023-02-15T04:30:48;3.10;99.90
24614;DHT22;12760;46.296;25.290;2023-02-15T04:33:13;3.10;99.90
24614;DHT22;12760;46.296;25.290;2023-02-15T04:35:39;3.10;99.90
24614;DHT22;12760;46.296;25.290;2023-02-15T04:38:05;3.10;99.90
24614;DHT22;12760;46.296;25.290;2023-02-15T04:40:30;3.10;99.90
24614;DHT22;12760;46.296;25.290;2023-02-15T04:42:56;3.10;99.90
24614;DHT22;12760;46.296;25.290;2023-02-15T04:45:22;3.00;99.90
24614;DHT22;12760;46.296;25.290;2023-02-15T04:47:47;2.90;99.90
24614;DHT22;12760;46.296;25.290;2023-02-15T04:50:13;2.90;99.90
24614;DHT22;12760;46.296;25.290;2023-02-15T04:52:39;2.90;99.90
24614;DHT22;12760;46.296;25.290;2023-02-15T04:55:05;2.90;99.90
24614;DHT22;12760;46.296;25.290;2023-02-15T04:57:31;2.90;99.90
24614;DHT22;12760;46.296;25.290;2023-02-15T04:59:56;2.90;99.90
24614;DHT22;12760;46.296;25.290;2023-02-15T05:02:24;2.90;99.90
24614;DHT22;12760;46.296;25.290;2023-02-15T05:04:50;2.90;99.90
24614;DHT22;12760;46.296;25.290;2023-02-15T05:07:15;2.90;99.90
24614;DHT22;12760;46.296;25.290;2023-02-15T05:09:41;2.80;99.90
24614;DHT22;12760;46.296;25.290;2023-02-15T05:12:07;2.70;99.90
24614;DHT22;12760;46.296;25.290;2023-02-15T05:14:32;2.70;99.90
24614;DHT22;12760;46.296;25.290;2023-02-15T05:16:58;2.70;99.90
24614;DHT22;12760;46.296;25.290;2023-02-15T05:19:27;2.70;99.90
24614;DHT22;12760;46.296;25.290;2023-02-15T05:21:52;2.70;99.90
24614;DHT22;12760;46.296;25.290;2023-02-15T05:24:18;2.70;99.90
24614;DHT22;12760;46.296;25.290;2023-02-15T05:27:02;2.70;99.90
24614;DHT22;12760;46.296;25.290;2023-02-15T05:29:46;2.70;99.90
24614;DHT22;12760;46.296;25.290;2023-02-15T05:32:13;2.70;99.90
24614;DHT22;12760;46.296;25.290;2023-02-15T05:34:39;2.70;99.90
24614;DHT22;12760;46.296;25.290;2023-02-15T05:37:05;2.70;99.90
24614;DHT22;12760;46.296;25.290;2023-02-15T05:39:32;2.80;99.90
24614;DHT22;12760;46.296;25.290;2023-02-15T05:42:01;2.80;99.90
24614;DHT22;12760;46.296;25.290;2023-02-15T05:44:27;2.90;99.90
24614;DHT22;12760;46.296;25.290;2023-02-15T05:46:52;2.90;99.90
24614;DHT22;12760;46.296;25.290;2023-02-15T05:49:18;2.90;99.90
24614;DHT22;12760;46.296;25.290;2023-02-15T05:51:44;2.90;99.90
24614;DHT22;12760;46.296;25.290;2023-02-15T05:54:09;2.90;99.90
24614;DHT22;12760;46.296;25.290;2023-02-15T05:56:35;3.00;99.90
24614;DHT22;12760;46.296;25.290;2023-02-15T05:59:01;3.00;99.90
24614;DHT22;12760;46.296;25.290;2023-02-15T06:01:26;3.00;99.90
24614;DHT22;12760;46.296;25.290;2023-02-15T06:03:52;3.00;99.90
24614;DHT22;12760;46.296;25.290;2023-02-15T06:06:18;3.00;99.90
24614;DHT22;12760;46.296;25.290;2023-02-15T06:08:44;3.00;99.90
24614;DHT22;12760;46.296;25.290;2023-02-15T06:11:09;2.90;99.90
24614;DHT22;12760;46.296;25.290;2023-02-15T06:13:36;2.90;99.90
24614;DHT22;12760;46.296;25.290;2023-02-15T06:16:01;2.90;99.90
24614;DHT22;12760;46.296;25.290;2023-02-15T06:18:27;3.00;99.90
24614;DHT22;12760;46.296;25.290;2023-02-15T06:20:53;2.90;99.90
24614;DHT22;12760;46.296;25.290;2023-02-15T06:23:18;2.90;99.90
24614;DHT22;12760;46.296;25.290;2023-02-15T06:25:45;2.90;99.90
24614;DHT22;12760;46.296;25.290;2023-02-15T06:28:11;3.00;99.90
24614;DHT22;12760;46.296;25.290;2023-02-15T06:30:37;2.90;99.90
24614;DHT22;12760;46.296;25.290;2023-02-15T06:33:03;3.00;99.90
24614;DHT22;12760;46.296;25.290;2023-02-15T06:35:29;3.00;99.90
24614;DHT22;12760;46.296;25.290;2023-02-15T06:37:54;3.00;99.90
24614;DHT22;12760;46.296;25.290;2023-02-15T06:40:20;3.00;99.90
24614;DHT22;12760;46.296;25.290;2023-02-15T06:42:46;3.00;99.90
24614;DHT22;12760;46.296;25.290;2023-02-15T06:45:11;3.00;99.90
24614;DHT22;12760;46.296;25.290;2023-02-15T06:47:37;3.00;99.90
24614;DHT22;12760;46.296;25.290;2023-02-15T06:50:04;3.10;99.90
24614;DHT22;12760;46.296;25.290;2023-02-15T06:52:30;3.10;99.90
24614;DHT22;12760;46.296;25.290;2023-02-15T06:54:56;3.20;99.90
24614;DHT22;12760;46.296;25.290;2023-02-15T06:57:22;3.10;99.90
24614;DHT22;12760;46.296;25.290;2023-02-15T06:59:48;3.10;99.90
24614;DHT22;12760;46.296;25.290;2023-02-15T07:02:14;3.10;99.90
24614;DHT22;12760;46.296;25.290;2023-02-15T07:04:40;3.10;99.90
24614;DHT22;12760;46.296;25.290;2023-02-15T07:07:08;3.20;99.90
24614;DHT22;12760;46.296;25.290;2023-02-15T07:09:34;3.10;99.90
24614;DHT22;12760;46.296;25.290;2023-02-15T07:12:00;3.20;99.90
24614;DHT22;12760;46.296;25.290;2023-02-15T07:14:44;3.20;99.90
24614;DHT22;12760;46.296;25.290;2023-02-15T07:17:10;3.30;99.90
24614;DHT22;12760;46.296;25.290;2023-02-15T07:19:36;3.30;99.90
24614;DHT22;12760;46.296;25.290;2023-02-15T07:22:01;3.40;99.90
24614;DHT22;12760;46.296;25.290;2023-02-15T07:24:29;3.40;99.90
24614;DHT22;12760;46.296;25.290;2023-02-15T07:26:54;3.40;99.90
24614;DHT22;12760;46.296;25.290;2023-02-15T07:29:20;3.40;99.90
24614;DHT22;12760;46.296;25.290;2023-02-15T07:31:46;3.40;99.90
24614;DHT22;12760;46.296;25.290;2023-02-15T07:34:12;3.40;99.90
24614;DHT22;12760;46.296;25.290;2023-02-15T07:36:37;3.40;99.90
24614;DHT22;12760;46.296;25.290;2023-02-15T07:39:03;3.40;99.90
24614;DHT22;12760;46.296;25.290;2023-02-15T07:41:29;3.50;99.90
24614;DHT22;12760;46.296;25.290;2023-02-15T07:43:54;3.50;99.90
24614;DHT22;12760;46.296;25.290;2023-02-15T07:46:20;3.60;99.90
24614;DHT22;12760;46.296;25.290;2023-02-15T07:48:47;3.60;99.90
24614;DHT22;12760;46.296;25.290;2023-02-15T07:51:13;3.60;99.90
24614;DHT22;12760;46.296;25.290;2023-02-15T07:53:40;3.70;99.90
24614;DHT22;12760;46.296;25.290;2023-02-15T07:56:11;3.70;99.90
24614;DHT22;12760;46.296;25.290;2023-02-15T07:58:37;3.70;99.90
24614;DHT22;12760;46.296;25.290;2023-02-15T08:01:32;3.80;99.90
24614;DHT22;12760;46.296;25.290;2023-02-15T08:03:58;3.80;99.90
24614;DHT22;12760;46.296;25.290;2023-02-15T08:06:26;3.90;99.90
24614;DHT22;12760;46.296;25.290;2023-02-15T08:08:53;4.00;99.90
24614;DHT22;12760;46.296;25.290;2023-02-15T08:11:24;4.00;99.90
24614;DHT22;12760;46.296;25.290;2023-02-15T08:13:55;4.00;99.90
24614;DHT22;12760;46.296;25.290;2023-02-15T08:16:49;4.00;99.90
24614;DHT22;12760;46.296;25.290;2023-02-15T08:19:20;4.00;99.90
24614;DHT22;12760;46.296;25.290;2023-02-15T08:21:49;3.90;99.90
24614;DHT22;12760;46.296;25.290;2023-02-15T08:24:20;4.10;99.90
24614;DHT22;12760;46.296;25.290;2023-02-15T08:26:47;4.10;99.90
24614;DHT22;12760;46.296;25.290;2023-02-15T08:29:21;4.20;99.90
24614;DHT22;12760;46.296;25.290;2023-02-15T08:31:48;4.20;99.90
24614;DHT22;12760;46.296;25.290;2023-02-15T08:34:17;4.30;99.90
24614;DHT22;12760;46.296;25.290;2023-02-15T08:36:44;4.30;99.90
24614;DHT22;12760;46.296;25.290;2023-02-15T08:39:14;4.30;99.90
24614;DHT22;12760;46.296;25.290;2023-02-15T08:41:45;4.40;99.90
24614;DHT22;12760;46.296;25.290;2023-02-15T08:44:11;4.40;99.90
24614;DHT22;12760;46.296;25.290;2023-02-15T08:46:40;4.40;99.90
24614;DHT22;12760;46.296;25.290;2023-02-15T08:49:07;4.50;99.90
24614;DHT22;12760;46.296;25.290;2023-02-15T08:51:36;4.50;99.90
24614;DHT22;12760;46.296;25.290;2023-02-15T08:54:05;4.50;99.90
24614;DHT22;12760;46.296;25.290;2023-02-15T08:56:36;4.60;99.90
24614;DHT22;12760;46.296;25.290;2023-02-15T08:59:03;4.70;99.90
24614;DHT22;12760;46.296;25.290;2023-02-15T09:01:31;4.70;99.90
24614;DHT22;12760;46.296;25.290;2023-02-15T09:04:02;4.70;99.90
24614;DHT22;12760;46.296;25.290;2023-02-15T09:06:30;4.60;99.90
24614;DHT22;12760;46.296;25.290;2023-02-15T09:08:56;4.70;99.90
24614;DHT22;12760;46.296;25.290;2023-02-15T09:11:24;4.80;99.90
24614;DHT22;12760;46.296;25.290;2023-02-15T09:16:19;5.00;99.90
24614;DHT22;12760;46.296;25.290;2023-02-15T09:18:45;4.90;99.90
24614;DHT22;12760;46.296;25.290;2023-02-15T09:21:16;4.90;99.90
24614;DHT22;12760;46.296;25.290;2023-02-15T09:23:44;4.90;99.90
24614;DHT22;12760;46.296;25.290;2023-02-15T09:26:12;4.90;99.90
24614;DHT22;12760;46.296;25.290;2023-02-15T09:28:38;4.90;99.90
24614;DHT22;12760;46.296;25.290;2023-02-15T09:31:18;5.00;99.90
24614;DHT22;12760;46.296;25.290;2023-02-15T09:33:45;5.10;99.90
24614;DHT22;12760;46.296;25.290;2023-02-15T09:36:37;5.10;99.90
24614;DHT22;12760;46.296;25.290;2023-02-15T09:39:15;5.20;99.90
24614;DHT22;12760;46.296;25.290;2023-02-15T09:47:42;5.40;99.90
24614;DHT22;12760;46.296;25.290;2023-02-15T10:03:51;5.30;99.90
24614;DHT22;12760;46.296;25.290;2023-02-15T10:08:51;5.30;99.90
24614;DHT22;12760;46.296;25.290;2023-02-15T10:14:31;5.30;99.90
24614;DHT22;12760;46.296;25.290;2023-02-15T10:25:28;5.50;99.90
24614;DHT22;12760;46.296;25.290;2023-02-15T10:28:03;5.60;99.90
24614;DHT22;12760;46.296;25.290;2023-02-15T10:30:43;5.70;99.90
24614;DHT22;12760;46.296;25.290;2023-02-15T10:42:24;5.90;99.90
24614;DHT22;12760;46.296;25.290;2023-02-15T10:48:06;6.10;99.90
24614;DHT22;12760;46.296;25.290;2023-02-15T10:51:03;6.10;99.90
24614;DHT22;12760;46.296;25.290;2023-02-15T10:59:19;5.90;99.90
24614;DHT22;12760;46.296;25.290;2023-02-15T11:02:06;5.90;99.90
24614;DHT22;12760;46.296;25.290;2023-02-15T11:07:58;6.00;99.90
24614;DHT22;12760;46.296;25.290;2023-02-15T11:13:26;6.00;99.90
24614;DHT22;12760;46.296;25.290;2023-02-15T11:16:04;6.10;99.90
24614;DHT22;12760;46.296;25.290;2023-02-15T11:18:52;6.20;99.90
24614;DHT22;12760;46.296;25.290;2023-02-15T11:21:26;6.30;99.90
24614;DHT22;12760;46.296;25.290;2023-02-15T11:23:54;6.50;99.90
24614;DHT22;12760;46.296;25.290;2023-02-15T11:26:30;6.60;99.90
24614;DHT22;12760;46.296;25.290;2023-02-15T11:42:47;6.50;99.90
24614;DHT22;12760;46.296;25.290;2023-02-15T11:45:30;6.60;99.90
24614;DHT22;12760;46.296;25.290;2023-02-15T11:47:59;6.50;99.90
24614;DHT22;12760;46.296;25.290;2023-02-15T11:50:29;6.50;99.90
24614;DHT22;12760;46.296;25.290;2023-02-15T11:53:06;6.60;99.90
24614;DHT22;12760;46.296;25.290;2023-02-15T11:55:35;6.50;99.90
24614;DHT22;12760;46.296;25.290;2023-02-15T12:00:47;6.50;99.90
24614;DHT22;12760;46.296;25.290;2023-02-15T12:06:02;6.40;99.90
24614;DHT22;12760;46.296;25.290;2023-02-15T12:11:39;6.30;99.90
24614;DHT22;12760;46.296;25.290;2023-02-15T12:14:10;6.30;99.90
24614;DHT22;12760;46.296;25.290;2023-02-15T12:19:33;6.40;99.90
24614;DHT22;12760;46.296;25.290;2023-02-15T12:22:03;6.30;99.90
24614;DHT22;12760;46.296;25.290;2023-02-15T12:24:32;6.40;99.90
24614;DHT22;12760;46.296;25.290;2023-02-15T12:27:19;6.40;99.90
24614;DHT22;12760;46.296;25.290;2023-02-15T12:30:00;6.40;99.90
24614;DHT22;12760;46.296;25.290;2023-02-15T12:32:34;6.20;99.90
24614;DHT22;12760;46.296;25.290;2023-02-15T12:35:14;6.40;99.90
24614;DHT22;12760;46.296;25.290;2023-02-15T12:38:05;6.60;99.90
24614;DHT22;12760;46.296;25.290;2023-02-15T12:40:32;6.60;99.90
24614;DHT22;12760;46.296;25.290;2023-02-15T12:42:59;6.70;99.90
24614;DHT22;12760;46.296;25.290;2023-02-15T12:45:36;6.70;99.90
24614;DHT22;12760;46.296;25.290;2023-02-15T12:50:34;6.70;99.90
24614;DHT22;12760;46.296;25.290;2023-02-15T12:53:52;6.70;99.90
24614;DHT22;12760;46.296;25.290;2023-02-15T12:55:58;6.70;99.90
24614;DHT22;12760;46.296;25.290;2023-02-15T12:58:26;6.70;99.90
24614;DHT22;12760;46.296;25.290;2023-02-15T13:01:22;6.70;99.90
24614;DHT22;12760;46.296;25.290;2023-02-15T13:06:21;6.60;99.90
24614;DHT22;12760;46.296;25.290;2023-02-15T13:08:50;6.60;99.90
24614;DHT22;12760;46.296;25.290;2023-02-15T13:11:29;6.50;99.90
24614;DHT22;12760;46.296;25.290;2023-02-15T13:14:02;6.40;99.90
24614;DHT22;12760;46.296;25.290;2023-02-15T13:16:37;6.40;99.90
24614;DHT22;12760;46.296;25.290;2023-02-15T13:19:22;6.30;99.90
24614;DHT22;12760;46.296;25.290;2023-02-15T13:21:53;6.40;99.90
24614;DHT22;12760;46.296;25.290;2023-02-15T13:24:29;6.30;99.90
24614;DHT22;12760;46.296;25.290;2023-02-15T13:26:58;6.40;99.90
24614;DHT22;12760;46.296;25.290;2023-02-15T13:29:28;6.40;99.90
24614;DHT22;12760;46.296;25.290;2023-02-15T13:31:56;6.40;99.90
24614;DHT22;12760;46.296;25.290;2023-02-15T13:34:33;6.20;99.90
24614;DHT22;12760;46.296;25.290;2023-02-15T13:39:48;6.20;99.90
24614;DHT22;12760;46.296;25.290;2023-02-15T13:45:25;6.10;99.90
24614;DHT22;12760;46.296;25.290;2023-02-15T13:50:52;5.90;99.90
24614;DHT22;12760;46.296;25.290;2023-02-15T13:56:17;5.90;99.90
24614;DHT22;12760;46.296;25.290;2023-02-15T14:06:47;5.70;99.90
24614;DHT22;12760;46.296;25.290;2023-02-15T14:09:39;5.70;99.90
24614;DHT22;12760;46.296;25.290;2023-02-15T14:20:01;5.60;99.90
24614;DHT22;12760;46.296;25.290;2023-02-15T14:22:41;5.50;99.90
24614;DHT22;12760;46.296;25.290;2023-02-15T14:25:48;5.50;99.90
24614;DHT22;12760;46.296;25.290;2023-02-15T14:31:03;5.40;99.90
24614;DHT22;12760;46.296;25.290;2023-02-15T14:33:38;5.40;99.90
24614;DHT22;12760;46.296;25.290;2023-02-15T14:36:13;5.40;99.90
24614;DHT22;12760;46.296;25.290;2023-02-15T14:41:57;5.30;99.90
24614;DHT22;12760;46.296;25.290;2023-02-15T14:44:35;5.30;99.90
24614;DHT22;12760;46.296;25.290;2023-02-15T14:47:25;5.30;99.90
24614;DHT22;12760;46.296;25.290;2023-02-15T14:49:52;5.20;99.90
24614;DHT22;12760;46.296;25.290;2023-02-15T14:52:19;5.20;99.90
24614;DHT22;12760;46.296;25.290;2023-02-15T14:59:41;5.10;99.90
24614;DHT22;12760;46.296;25.290;2023-02-15T15:04:38;5.00;99.90
24614;DHT22;12760;46.296;25.290;2023-02-15T15:09:36;5.00;99.90
24614;DHT22;12760;46.296;25.290;2023-02-15T15:12:36;5.00;99.90
24614;DHT22;12760;46.296;25.290;2023-02-15T15:15:03;5.00;99.90
24614;DHT22;12760;46.296;25.290;2023-02-15T15:22:42;5.00;99.90
24614;DHT22;12760;46.296;25.290;2023-02-15T15:34:19;4.80;99.90
24614;DHT22;12760;46.296;25.290;2023-02-15T15:37:33;4.80;99.90
24614;DHT22;12760;46.296;25.290;2023-02-15T15:42:48;4.60;99.90
24614;DHT22;12760;46.296;25.290;2023-02-15T15:45:44;4.50;99.90
24614;DHT22;12760;46.296;25.290;2023-02-15T15:48:36;4.50;99.90
24614;DHT22;12760;46.296;25.290;2023-02-15T15:51:27;4.40;99.90
24614;DHT22;12760;46.296;25.290;2023-02-15T15:53:55;4.50;99.90
24614;DHT22;12760;46.296;25.290;2023-02-15T15:56:33;4.50;99.90
24614;DHT22;12760;46.296;25.290;2023-02-15T15:59:07;4.50;99.90
24614;DHT22;12760;46.296;25.290;2023-02-15T16:01:44;4.40;99.90
24614;DHT22;12760;46.296;25.290;2023-02-15T16:04:33;4.30;99.90
24614;DHT22;12760;46.296;25.290;2023-02-15T16:07:13;4.30;99.90
24614;DHT22;12760;46.296;25.290;2023-02-15T16:09:38;4.20;99.90
24614;DHT22;12760;46.296;25.290;2023-02-15T16:12:05;4.10;99.90
24614;DHT22;12760;46.296;25.290;2023-02-15T16:14:40;4.10;99.90
24614;DHT22;12760;46.296;25.290;2023-02-15T16:17:17;4.10;99.90
24614;DHT22;12760;46.296;25.290;2023-02-15T16:19:44;4.10;99.90
24614;DHT22;12760;46.296;25.290;2023-02-15T16:22:18;4.10;99.90
24614;DHT22;12760;46.296;25.290;2023-02-15T16:27:37;4.00;99.90
24614;DHT22;12760;46.296;25.290;2023-02-15T16:30:29;3.90;99.90
24614;DHT22;12760;46.296;25.290;2023-02-15T16:35:30;3.90;99.90
24614;DHT22;12760;46.296;25.290;2023-02-15T16:37:55;3.90;99.90
24614;DHT22;12760;46.296;25.290;2023-02-15T16:43:13;3.90;99.90
24614;DHT22;12760;46.296;25.290;2023-02-15T16:45:40;3.90;99.90
24614;DHT22;12760;46.296;25.290;2023-02-15T16:48:13;3.90;99.90
24614;DHT22;12760;46.296;25.290;2023-02-15T16:50:47;3.80;99.90
24614;DHT22;12760;46.296;25.290;2023-02-15T16:53:21;3.80;99.90
24614;DHT22;12760;46.296;25.290;2023-02-15T16:55:50;3.80;99.90
24614;DHT22;12760;46.296;25.290;2023-02-15T16:58:17;3.70;99.90
24614;DHT22;12760;46.296;25.290;2023-02-15T17:00:47;3.70;99.90
24614;DHT22;12760;46.296;25.290;2023-02-15T17:05:48;3.60;99.90
24614;DHT22;12760;46.296;25.290;2023-02-15T17:08:19;3.60;99.90
24614;DHT22;12760;46.296;25.290;2023-02-15T17:16:34;3.50;99.90
24614;DHT22;12760;46.296;25.290;2023-02-15T17:19:02;3.40;99.90
24614;DHT22;12760;46.296;25.290;2023-02-15T17:21:38;3.40;99.90
24614;DHT22;12760;46.296;25.290;2023-02-15T17:24:04;3.40;99.90
24614;DHT22;12760;46.296;25.290;2023-02-15T17:26:33;3.40;99.90
24614;DHT22;12760;46.296;25.290;2023-02-15T17:29:17;3.40;99.90
24614;DHT22;12760;46.296;25.290;2023-02-15T17:31:49;3.30;99.90
24614;DHT22;12760;46.296;25.290;2023-02-15T17:37:12;3.20;99.90
24614;DHT22;12760;46.296;25.290;2023-02-15T17:39:38;3.20;99.90
24614;DHT22;12760;46.296;25.290;2023-02-15T17:42:06;3.10;99.90
24614;DHT22;12760;46.296;25.290;2023-02-15T17:44:31;3.10;99.90
24614;DHT22;12760;46.296;25.290;2023-02-15T17:46:57;3.00;99.90
24614;DHT22;12760;46.296;25.290;2023-02-15T17:49:24;3.00;99.90
24614;DHT22;12760;46.296;25.290;2023-02-15T17:51:53;2.80;99.90
24614;DHT22;12760;46.296;25.290;2023-02-15T17:54:19;2.80;99.90
24614;DHT22;12760;46.296;25.290;2023-02-15T17:57:11;2.80;99.90
24614;DHT22;12760;46.296;25.290;2023-02-15T17:59:37;2.80;99.90
24614;DHT22;12760;46.296;25.290;2023-02-15T18:02:21;2.80;99.90
24614;DHT22;12760;46.296;25.290;2023-02-15T18:05:14;2.80;99.90
24614;DHT22;12760;46.296;25.290;2023-02-15T18:07:58;2.80;99.90
24614;DHT22;12760;46.296;25.290;2023-02-15T18:10:43;2.70;99.90
24614;DHT22;12760;46.296;25.290;2023-02-15T18:13:27;2.70;99.90
24614;DHT22;12760;46.296;25.290;2023-02-15T18:15:53;2.60;99.90
24614;DHT22;12760;46.296;25.290;2023-02-15T18:18:21;2.60;99.90
24614;DHT22;12760;46.296;25.290;2023-02-15T18:20:47;2.60;99.90
24614;DHT22;12760;46.296;25.290;2023-02-15T18:23:16;2.60;99.90
24614;DHT22;12760;46.296;25.290;2023-02-15T18:25:41;2.60;99.90
24614;DHT22;12760;46.296;25.290;2023-02-15T18:28:10;2.60;99.90
24614;DHT22;12760;46.296;25.290;2023-02-15T18:30:39;2.60;99.90
24614;DHT22;12760;46.296;25.290;2023-02-15T18:33:28;2.50;99.90
24614;DHT22;12760;46.296;25.290;2023-02-15T18:35:56;2.50;99.90
24614;DHT22;12760;46.296;25.290;2023-02-15T18:38:22;2.40;99.90
24614;DHT22;12760;46.296;25.290;2023-02-15T18:40:48;2.50;99.90
24614;DHT22;12760;46.296;25.290;2023-02-15T18:43:15;2.40;99.90
24614;DHT22;12760;46.296;25.290;2023-02-15T18:45:41;2.30;99.90
24614;DHT22;12760;46.296;25.290;2023-02-15T18:48:06;2.30;99.90
24614;DHT22;12760;46.296;25.290;2023-02-15T18:50:36;2.30;99.90
24614;DHT22;12760;46.296;25.290;2023-02-15T18:53:04;2.20;99.90
24614;DHT22;12760;46.296;25.290;2023-02-15T18:55:31;2.20;99.90
24614;DHT22;12760;46.296;25.290;2023-02-15T18:57:58;2.20;99.90
24614;DHT22;12760;46.296;25.290;2023-02-15T19:00:29;2.20;99.90
24614;DHT22;12760;46.296;25.290;2023-02-15T19:02:57;2.20;99.90
24614;DHT22;12760;46.296;25.290;2023-02-15T19:05:23;2.20;99.90
24614;DHT22;12760;46.296;25.290;2023-02-15T19:07:50;2.20;99.90
24614;DHT22;12760;46.296;25.290;2023-02-15T19:10:22;2.20;99.90
24614;DHT22;12760;46.296;25.290;2023-02-15T19:12:49;2.20;99.90